createdAt,value
2019-05-10T00:00:41.016Z,1.65
2019-05-10T00:03:26.513Z,2.10
2019-05-10T00:06:11.693Z,1.72
2019-05-10T00:08:44.649Z,1.75
2019-05-10T00:11:40.953Z,1.92
2019-05-10T00:14:44.843Z,1.70
2019-05-10T00:17:16.798Z,1.73
2019-05-10T00:19:44.122Z,1.70
2019-05-10T00:22:11.619Z,1.62
2019-05-10T00:24:39.075Z,1.80
2019-05-10T00:27:06.474Z,2.00
2019-05-10T00:29:33.759Z,1.40
2019-05-10T00:32:01.508Z,1.60
2019-05-10T00:34:29.001Z,1.50
2019-05-10T00:36:56.782Z,1.60
2019-05-10T00:39:24.350Z,1.87
2019-05-10T00:41:51.856Z,1.60
2019-05-10T00:44:19.196Z,1.60
2019-05-10T00:46:46.626Z,1.60
2019-05-10T00:49:14.029Z,1.95
2019-05-10T00:51:41.459Z,1.60
2019-05-10T00:54:09.152Z,1.47
2019-05-10T00:56:36.861Z,1.90
2019-05-10T00:59:04.240Z,1.80
2019-05-10T01:01:31.563Z,1.95
2019-05-10T01:03:59.090Z,2.12
2019-05-10T01:06:26.995Z,2.20
2019-05-10T01:08:54.452Z,1.90
2019-05-10T01:11:21.940Z,1.87
2019-05-10T01:13:49.350Z,1.80
2019-05-10T01:16:16.859Z,1.90
2019-05-10T01:18:44.752Z,1.87
2019-05-10T01:21:12.291Z,2.00
2019-05-10T01:23:39.709Z,2.00
2019-05-10T01:26:07.032Z,1.95
2019-05-10T01:28:34.513Z,2.02
2019-05-10T01:31:01.992Z,2.12
2019-05-10T01:33:29.322Z,2.17
2019-05-10T01:35:56.677Z,2.00
2019-05-10T01:38:24.514Z,2.35
2019-05-10T01:40:52.223Z,2.40
2019-05-10T01:43:19.708Z,2.27
2019-05-10T01:45:47.547Z,2.47
2019-05-10T01:48:14.858Z,1.98
2019-05-10T01:50:42.973Z,2.20
2019-05-10T01:53:10.990Z,2.10
2019-05-10T01:55:50.731Z,1.80
2019-05-10T01:58:07.598Z,1.95
2019-05-10T02:00:34.919Z,2.00
2019-05-10T02:03:02.354Z,2.10
2019-05-10T02:05:29.820Z,1.95
2019-05-10T02:07:57.272Z,2.00
2019-05-10T02:10:24.761Z,2.00
2019-05-10T02:12:52.219Z,1.90
2019-05-10T02:15:19.697Z,1.92
2019-05-10T02:17:47.029Z,2.05
2019-05-10T02:20:14.746Z,1.90
2019-05-10T02:22:42.124Z,2.00
2019-05-10T02:25:09.548Z,2.20
2019-05-10T02:27:36.895Z,1.80
2019-05-10T02:30:05.405Z,2.17
2019-05-10T02:32:33.159Z,2.00
2019-05-10T02:35:00.684Z,1.90
2019-05-10T02:37:28.403Z,2.20
2019-05-10T02:39:55.779Z,2.20
2019-05-10T02:42:23.316Z,2.10
2019-05-10T02:44:50.813Z,2.45
2019-05-10T02:47:18.255Z,2.58
2019-05-10T02:49:45.710Z,2.62
2019-05-10T02:52:13.305Z,2.25
2019-05-10T02:54:42.333Z,2.20
2019-05-10T02:57:11.563Z,2.42
2019-05-10T02:59:40.446Z,2.50
2019-05-10T03:02:08.259Z,2.77
2019-05-10T03:04:35.733Z,2.52
2019-05-10T03:07:04.677Z,2.90
2019-05-10T03:09:33.035Z,2.60
2019-05-10T03:12:17.264Z,2.30
2019-05-10T03:14:48.258Z,2.65
2019-05-10T03:17:17.948Z,2.30
2019-05-10T03:19:47.603Z,2.65
2019-05-10T03:22:17.405Z,2.50
2019-05-10T03:24:44.830Z,2.47
2019-05-10T03:27:13.037Z,2.70
2019-05-10T03:29:40.806Z,2.70
2019-05-10T03:32:08.796Z,2.60
2019-05-10T03:34:36.282Z,2.58
2019-05-10T03:37:03.674Z,2.50
2019-05-10T03:39:31.123Z,2.87
2019-05-10T03:41:58.537Z,2.92
2019-05-10T03:44:26.295Z,2.55
2019-05-10T03:46:54.291Z,2.90
2019-05-10T03:49:22.133Z,2.83
2019-05-10T03:51:49.966Z,2.60
2019-05-10T03:54:17.644Z,3.00
2019-05-10T03:56:44.978Z,3.10
2019-05-10T03:59:12.731Z,3.27
2019-05-10T04:01:40.179Z,3.22
2019-05-10T04:04:09.606Z,2.85
2019-05-10T04:06:36.897Z,3.40
2019-05-10T04:09:05.117Z,3.20
2019-05-10T04:11:32.875Z,3.00
2019-05-10T04:14:00.629Z,3.47
2019-05-10T04:16:28.340Z,3.33
2019-05-10T04:19:15.347Z,2.90
2019-05-10T04:21:43.233Z,3.33
2019-05-10T04:24:10.718Z,3.10
2019-05-10T04:26:38.140Z,3.00
2019-05-10T04:29:05.508Z,3.33
2019-05-10T04:31:32.937Z,3.02
2019-05-10T04:34:00.402Z,3.40
2019-05-10T04:36:28.457Z,3.40
2019-05-10T04:38:56.066Z,2.87
2019-05-10T04:41:23.821Z,3.20
2019-05-10T04:43:51.134Z,3.33
2019-05-10T04:46:18.581Z,3.10
2019-05-10T04:48:46.268Z,3.35
2019-05-10T04:51:13.735Z,3.22
2019-05-10T04:53:41.708Z,3.00
2019-05-10T04:56:09.349Z,2.70
2019-05-10T04:58:36.766Z,2.83
2019-05-10T05:01:04.520Z,2.83
2019-05-10T05:03:32.471Z,2.80
2019-05-10T05:06:01.277Z,2.80
2019-05-10T05:08:28.647Z,2.77
2019-05-10T05:10:56.048Z,2.70
2019-05-10T05:13:23.739Z,2.72
2019-05-10T05:15:51.355Z,2.70
2019-05-10T05:18:18.830Z,2.58
2019-05-10T05:20:46.664Z,2.72
2019-05-10T05:23:14.061Z,2.75
2019-05-10T05:25:41.851Z,2.80
2019-05-10T05:28:09.381Z,3.22
2019-05-10T05:30:38.784Z,2.95
2019-05-10T05:33:06.114Z,2.98
2019-05-10T05:35:33.608Z,2.70
2019-05-10T05:38:00.985Z,2.40
2019-05-10T05:40:28.619Z,2.62
2019-05-10T05:42:56.081Z,3.12
2019-05-10T05:45:28.378Z,10.20
2019-05-10T05:47:52.772Z,9.53
2019-05-10T05:50:20.225Z,3.77
2019-05-10T05:52:47.956Z,3.00
2019-05-10T05:55:15.408Z,2.60
2019-05-10T05:57:43.229Z,2.70
2019-05-10T06:00:11.600Z,3.12
2019-05-10T06:02:44.365Z,2.90
2019-05-10T06:05:08.386Z,2.42
2019-05-10T06:07:38.121Z,2.60
2019-05-10T06:10:10.247Z,2.80
2019-05-10T06:12:35.064Z,2.65
2019-05-10T06:15:02.372Z,2.30
2019-05-10T06:17:31.665Z,2.80
2019-05-10T06:20:00.924Z,2.60
2019-05-10T06:22:28.367Z,2.62
2019-05-10T06:24:55.836Z,2.90
2019-05-10T06:27:23.569Z,2.58
2019-05-10T06:29:51.769Z,2.42
2019-05-10T06:32:19.476Z,2.58
2019-05-10T06:34:46.978Z,2.00
2019-05-10T06:37:15.044Z,2.30
2019-05-10T06:39:43.005Z,2.25
2019-05-10T06:42:10.728Z,2.17
2019-05-10T06:44:38.048Z,1.92
2019-05-10T06:47:08.486Z,1.80
2019-05-10T06:49:34.712Z,1.82
2019-05-10T06:52:02.106Z,1.60
2019-05-10T06:54:29.629Z,2.10
2019-05-10T06:56:57.444Z,1.57
2019-05-10T06:59:26.278Z,1.82
2019-05-10T07:01:54.256Z,2.10
2019-05-10T07:04:21.601Z,1.57
2019-05-10T07:06:49.057Z,1.80
2019-05-10T07:09:16.619Z,2.08
2019-05-10T07:11:44.009Z,1.60
2019-05-10T07:14:11.735Z,1.72
2019-05-10T07:16:39.354Z,1.95
2019-05-10T07:19:06.744Z,1.92
2019-05-10T07:21:38.827Z,2.00
2019-05-10T07:24:03.446Z,1.90
2019-05-10T07:26:30.769Z,1.67
2019-05-10T07:28:59.376Z,1.62
2019-05-10T07:31:27.049Z,2.00
2019-05-10T07:33:54.521Z,2.10
2019-05-10T07:36:27.001Z,1.90
2019-05-10T07:38:51.118Z,2.27
2019-05-10T07:41:25.644Z,1.70
2019-05-10T07:43:48.912Z,2.25
2019-05-10T07:46:16.361Z,1.80
2019-05-10T07:48:47.382Z,1.60
2019-05-10T07:51:13.145Z,2.02
2019-05-10T07:53:40.568Z,1.60
2019-05-10T07:56:08.869Z,1.77
2019-05-10T07:58:38.355Z,1.80
2019-05-10T08:01:05.646Z,2.00
2019-05-10T08:03:35.560Z,1.80
2019-05-10T08:06:02.309Z,1.80
2019-05-10T08:08:29.991Z,2.12
2019-05-10T08:10:59.375Z,2.17
2019-05-10T08:13:28.490Z,2.00
2019-05-10T08:15:56.145Z,2.05
2019-05-10T08:18:25.432Z,1.85
2019-05-10T08:20:57.716Z,1.90
2019-05-10T08:23:26.415Z,1.92
2019-05-10T08:25:53.446Z,1.87
2019-05-10T08:28:22.828Z,1.92
2019-05-10T08:30:53.504Z,1.92
2019-05-10T08:33:19.678Z,2.00
2019-05-10T08:35:52.482Z,2.50
2019-05-10T08:38:16.787Z,1.50
2019-05-10T08:40:44.241Z,1.60
2019-05-10T08:43:15.610Z,1.20
2019-05-10T08:45:44.882Z,2.20
2019-05-10T08:48:12.747Z,1.55
2019-05-10T08:50:52.788Z,1.67
2019-05-10T08:53:10.892Z,1.85
2019-05-10T08:55:38.878Z,1.70
2019-05-10T08:58:06.744Z,1.98
2019-05-10T09:00:48.920Z,1.77
2019-05-10T09:03:09.568Z,1.87
2019-05-10T09:05:34.051Z,1.87
2019-05-10T09:08:05.466Z,2.25
2019-05-10T09:10:32.365Z,1.82
2019-05-10T09:13:03.155Z,1.80
2019-05-10T09:15:29.702Z,1.75
2019-05-10T09:17:58.345Z,1.85
2019-05-10T09:20:27.087Z,2.20
2019-05-10T09:22:54.493Z,1.77
2019-05-10T09:25:29.243Z,1.80
2019-05-10T09:27:53.179Z,1.50
2019-05-10T09:30:29.489Z,1.77
2019-05-10T09:33:01.000Z,1.50
2019-05-10T09:35:26.645Z,1.80
2019-05-10T09:37:58.607Z,1.50
2019-05-10T09:40:23.672Z,1.32
2019-05-10T09:42:52.312Z,1.50
2019-05-10T09:45:24.135Z,1.60
2019-05-10T09:47:49.130Z,1.67
2019-05-10T09:50:16.677Z,2.05
2019-05-10T09:52:44.171Z,1.80
2019-05-10T09:55:14.877Z,1.70
2019-05-10T09:57:40.869Z,1.90
2019-05-10T10:00:10.483Z,1.90
2019-05-10T10:02:40.606Z,4.80
2019-05-10T10:05:08.162Z,1.95
2019-05-10T10:07:37.395Z,1.60
2019-05-10T10:10:07.381Z,1.52
2019-05-10T10:12:37.251Z,2.02
2019-05-10T10:15:09.331Z,1.80
2019-05-10T10:17:40.174Z,1.80
2019-05-10T10:20:04.361Z,1.60
2019-05-10T10:22:31.727Z,2.00
2019-05-10T10:25:00.633Z,1.47
2019-05-10T10:27:34.585Z,2.10
2019-05-10T10:29:57.878Z,1.57
2019-05-10T10:32:31.579Z,1.90
2019-05-10T10:34:54.927Z,1.70
2019-05-10T10:37:28.271Z,2.00
2019-05-10T10:39:54.564Z,1.50
2019-05-10T10:42:22.542Z,1.40
2019-05-10T10:44:49.968Z,1.70
2019-05-10T10:47:18.020Z,1.80
2019-05-10T10:49:45.730Z,1.60
2019-05-10T10:52:13.988Z,3.40
2019-05-10T10:54:41.291Z,2.08
2019-05-10T10:57:08.726Z,1.77
2019-05-10T10:59:37.350Z,2.77
2019-05-10T11:02:30.977Z,1.60
2019-05-10T11:04:34.495Z,1.50
2019-05-10T11:07:10.594Z,1.65
2019-05-10T11:09:31.455Z,1.50
2019-05-10T11:12:00.931Z,1.70
2019-05-10T11:14:34.038Z,1.90
2019-05-10T11:16:58.123Z,2.10
2019-05-10T11:19:25.475Z,1.65
2019-05-10T11:21:52.933Z,2.02
2019-05-10T11:24:22.809Z,2.20
2019-05-10T11:26:51.493Z,2.00
2019-05-10T11:29:23.073Z,1.77
2019-05-10T11:31:58.763Z,1.72
2019-05-10T11:34:17.220Z,1.70
2019-05-10T11:36:45.915Z,1.80
2019-05-10T11:39:25.230Z,2.00
2019-05-10T11:41:43.508Z,2.20
2019-05-10T11:44:12.076Z,1.32
2019-05-10T11:46:41.630Z,1.82
2019-05-10T11:49:10.627Z,1.70
2019-05-10T11:51:38.284Z,1.90
2019-05-10T11:54:05.623Z,1.80
2019-05-10T11:56:33.066Z,1.75
2019-05-10T11:59:02.499Z,1.90
2019-05-10T12:01:30.154Z,1.80
2019-05-10T12:03:57.399Z,1.92
2019-05-10T12:06:25.553Z,2.10
2019-05-10T12:11:32.536Z,2.30
2019-05-10T12:13:56.887Z,2.10
2019-05-10T12:16:21.485Z,1.77
2019-05-10T12:21:21.528Z,1.80
2019-05-10T12:26:18.268Z,2.35
2019-05-10T12:26:29.496Z,2.27
2019-05-10T12:26:59.026Z,2.08
2019-05-10T12:28:46.555Z,1.92
2019-05-10T12:31:17.061Z,2.10
2019-05-10T12:33:45.440Z,1.62
2019-05-10T12:36:22.391Z,2.00
2019-05-10T12:38:42.120Z,1.67
2019-05-10T12:41:09.896Z,2.20
2019-05-10T12:43:37.765Z,2.10
2019-05-10T12:46:05.313Z,2.05
2019-05-10T12:48:35.923Z,2.60
2019-05-10T12:51:08.272Z,1.72
2019-05-10T12:53:36.570Z,1.52
2019-05-10T12:56:01.963Z,1.55
2019-05-10T12:58:29.417Z,1.90
2019-05-10T13:00:59.016Z,2.17
2019-05-10T13:03:31.538Z,1.60
2019-05-10T13:05:56.612Z,2.12
2019-05-10T13:08:24.351Z,1.90
2019-05-10T13:10:52.141Z,1.62
2019-05-10T13:13:23.274Z,1.65
2019-05-10T13:15:49.518Z,1.60
2019-05-10T13:18:17.245Z,1.80
2019-05-10T13:20:44.761Z,1.82
2019-05-10T13:23:16.120Z,2.08
2019-05-10T13:25:41.897Z,1.60
2019-05-10T13:28:11.361Z,1.60
2019-05-10T13:30:39.481Z,1.70
2019-05-10T13:33:06.900Z,1.98
2019-05-10T13:35:34.493Z,1.57
2019-05-10T13:38:03.992Z,1.40
2019-05-10T13:40:31.248Z,1.40
2019-05-10T13:42:59.044Z,1.60
2019-05-10T13:45:31.814Z,1.20
2019-05-10T13:47:56.004Z,1.30
2019-05-10T13:50:23.348Z,1.40
2019-05-10T13:52:50.758Z,1.55
2019-05-10T13:55:19.063Z,1.40
2019-05-10T13:57:46.828Z,1.55
2019-05-10T14:00:14.586Z,1.60
2019-05-10T14:02:42.069Z,1.30
2019-05-10T14:05:12.065Z,1.52
2019-05-10T14:07:50.327Z,1.37
2019-05-10T14:10:18.126Z,1.55
2019-05-10T14:12:42.854Z,1.57
2019-05-10T14:15:13.582Z,1.50
2019-05-10T14:17:40.045Z,1.60
2019-05-10T14:20:19.344Z,1.70
2019-05-10T14:22:37.253Z,1.37
2019-05-10T14:25:05.033Z,1.50
2019-05-10T14:27:35.914Z,1.60
2019-05-10T14:30:01.741Z,1.80
2019-05-10T14:32:29.547Z,2.42
2019-05-10T14:34:57.259Z,2.30
2019-05-10T14:37:24.945Z,1.65
2019-05-10T14:39:52.458Z,1.32
2019-05-10T14:42:23.937Z,1.32
2019-05-10T14:44:49.541Z,1.50
2019-05-10T14:47:16.983Z,1.35
2019-05-10T14:49:47.222Z,1.30
2019-05-10T14:52:13.642Z,1.40
2019-05-10T14:54:44.018Z,1.20
2019-05-10T14:57:10.820Z,1.02
2019-05-10T14:59:38.508Z,1.15
2019-05-10T15:07:23.673Z,1.00
2019-05-10T15:09:54.143Z,1.50
2019-05-10T15:12:22.765Z,1.20
2019-05-10T15:14:50.837Z,1.10
2019-05-10T15:17:20.106Z,1.40
2019-05-10T15:19:56.490Z,1.45
2019-05-10T15:22:18.550Z,1.37
2019-05-10T15:24:46.410Z,1.12
2019-05-10T15:27:16.214Z,1.10
2019-05-10T15:29:43.578Z,1.25
2019-05-10T15:32:10.937Z,1.10
2019-05-10T15:34:38.432Z,1.30
2019-05-10T15:37:09.225Z,1.07
2019-05-10T15:39:35.427Z,1.32
2019-05-10T15:42:02.767Z,1.07
2019-05-10T15:44:31.680Z,1.12
2019-05-10T15:46:59.904Z,1.07
2019-05-10T15:49:27.334Z,1.00
2019-05-10T15:52:00.340Z,1.00
2019-05-10T15:54:23.974Z,1.07
2019-05-10T15:59:23.581Z,1.30
2019-05-10T15:59:43.406Z,1.15
2019-05-10T16:02:31.625Z,1.10
2019-05-10T16:05:25.859Z,1.20
2019-05-10T16:07:46.529Z,1.20
2019-05-10T16:10:15.630Z,1.20
2019-05-10T16:12:44.634Z,1.30
2019-05-10T16:15:13.862Z,4.40
2019-05-10T16:17:42.342Z,1.60
2019-05-10T16:20:10.501Z,1.50
2019-05-10T16:22:38.208Z,1.40
2019-05-10T16:25:05.968Z,1.47
2019-05-10T16:27:39.526Z,1.37
2019-05-10T16:30:04.165Z,1.22
2019-05-10T16:32:34.452Z,1.87
2019-05-10T16:35:38.103Z,1.30
2019-05-10T16:38:20.736Z,1.60
2019-05-10T16:40:57.126Z,1.35
2019-05-10T16:43:24.046Z,1.47
2019-05-10T16:45:47.683Z,1.52
2019-05-10T16:48:15.141Z,1.87
2019-05-10T16:50:42.617Z,1.57
2019-05-10T16:53:09.983Z,1.30
2019-05-10T16:55:41.048Z,1.45
2019-05-10T16:58:09.565Z,1.60
2019-05-10T17:00:40.616Z,1.52
2019-05-10T17:03:05.657Z,1.40
2019-05-10T17:05:33.019Z,1.60
2019-05-10T17:08:00.513Z,1.30
2019-05-10T17:10:32.857Z,1.42
2019-05-10T17:12:59.685Z,1.80
2019-05-10T17:15:26.552Z,2.10
2019-05-10T17:17:53.939Z,5.50
2019-05-10T17:20:22.038Z,3.02
2019-05-10T17:22:49.527Z,1.70
2019-05-10T17:25:16.958Z,4.03
2019-05-10T17:27:44.369Z,2.10
2019-05-10T17:30:11.920Z,2.08
2019-05-10T17:32:39.749Z,1.72
2019-05-10T17:35:07.733Z,1.60
2019-05-10T17:37:36.203Z,1.70
2019-05-10T17:40:09.468Z,1.85
2019-05-10T17:42:35.565Z,1.40
2019-05-10T17:45:04.425Z,1.50
2019-05-10T17:47:33.734Z,1.60
2019-05-10T17:50:01.300Z,1.90
2019-05-10T17:52:29.159Z,1.90
2019-05-10T17:54:56.597Z,1.80
2019-05-10T17:57:24.079Z,1.80
2019-05-10T17:59:52.957Z,1.70
2019-05-10T18:02:20.790Z,1.65
2019-05-10T18:04:48.632Z,1.70
2019-05-10T18:07:16.084Z,1.90
2019-05-10T18:09:43.921Z,1.95
2019-05-10T18:12:15.642Z,1.62
2019-05-10T18:14:40.829Z,2.00
2019-05-10T18:17:08.619Z,1.82
2019-05-10T18:19:36.454Z,2.02
2019-05-10T18:22:06.464Z,1.80
2019-05-10T18:24:36.332Z,2.02
2019-05-10T18:27:03.161Z,1.72
2019-05-10T18:29:30.652Z,1.80
2019-05-10T18:31:58.451Z,2.20
2019-05-10T18:34:32.508Z,2.20
2019-05-10T18:36:55.252Z,2.20
2019-05-10T18:39:22.724Z,2.30
2019-05-10T18:41:50.151Z,2.35
2019-05-10T18:44:17.582Z,2.20
2019-05-10T18:46:45.076Z,2.27
2019-05-10T18:49:12.580Z,2.40
2019-05-10T18:51:40.140Z,2.52
2019-05-10T18:54:07.989Z,2.10
2019-05-10T18:56:35.362Z,2.25
2019-05-10T18:59:07.539Z,2.90
2019-05-10T19:01:32.752Z,4.25
2019-05-10T19:04:07.266Z,5.53
2019-05-10T19:06:31.521Z,3.70
2019-05-10T19:08:59.457Z,3.62
2019-05-10T19:11:32.984Z,5.62
2019-05-10T19:13:56.294Z,5.72
2019-05-10T19:16:25.855Z,4.83
2019-05-10T19:18:55.954Z,3.80
2019-05-10T19:21:24.909Z,2.62
2019-05-10T19:23:53.503Z,2.15
2019-05-10T19:26:23.918Z,2.37
2019-05-10T19:28:50.765Z,2.27
2019-05-10T19:31:18.214Z,1.82
2019-05-10T19:33:46.151Z,2.45
2019-05-10T19:36:14.728Z,2.10
2019-05-10T19:38:42.417Z,4.03
2019-05-10T19:41:09.807Z,4.08
2019-05-10T19:43:37.291Z,2.30
2019-05-10T19:46:04.676Z,2.70
2019-05-10T19:48:35.647Z,2.42
2019-05-10T19:51:02.959Z,2.30
2019-05-10T19:53:31.494Z,2.12
2019-05-10T19:55:59.248Z,2.42
2019-05-10T19:58:32.153Z,2.50
2019-05-10T20:00:56.306Z,2.50
2019-05-10T20:03:24.410Z,2.30
2019-05-10T20:05:51.630Z,2.83
2019-05-10T20:08:19.470Z,2.75
2019-05-10T20:10:46.978Z,2.50
2019-05-10T20:13:14.367Z,2.52
2019-05-10T20:15:42.083Z,2.45
2019-05-10T20:18:09.863Z,2.33
2019-05-10T20:20:37.273Z,2.47
2019-05-10T20:23:04.750Z,5.05
2019-05-10T20:25:32.514Z,6.78
2019-05-10T20:27:59.891Z,4.20
2019-05-10T20:30:27.553Z,7.15
2019-05-10T20:32:54.921Z,4.08
2019-05-10T20:35:22.680Z,3.47
2019-05-10T20:38:01.316Z,4.80
2019-05-10T20:40:20.168Z,4.00
2019-05-10T20:42:47.568Z,3.98
2019-05-10T20:45:15.241Z,3.87
2019-05-10T20:47:42.662Z,4.12
2019-05-10T20:50:10.694Z,3.67
2019-05-10T20:52:38.912Z,3.60
2019-05-10T20:55:06.803Z,3.45
2019-05-10T20:57:34.243Z,4.15
2019-05-10T21:00:01.717Z,3.50
2019-05-10T21:02:29.150Z,3.40
2019-05-10T21:04:56.543Z,3.70
2019-05-10T21:07:23.892Z,3.95
2019-05-10T21:09:51.924Z,3.70
2019-05-10T21:12:19.474Z,3.58
2019-05-10T21:14:46.938Z,4.58
2019-05-10T21:17:14.748Z,10.90
2019-05-10T21:19:42.130Z,4.55
2019-05-10T21:22:09.601Z,4.55
2019-05-10T21:24:36.969Z,4.10
2019-05-10T21:27:04.519Z,7.35
2019-05-10T21:29:31.953Z,5.30
2019-05-10T21:31:59.461Z,4.92
2019-05-10T21:34:27.172Z,4.47
2019-05-10T21:36:54.949Z,5.00
2019-05-10T21:39:22.922Z,3.85
2019-05-10T21:41:50.463Z,3.65
2019-05-10T21:44:18.171Z,4.15
2019-05-10T21:46:45.535Z,4.00
2019-05-10T21:49:13.427Z,4.35
2019-05-10T21:51:40.917Z,4.00
2019-05-10T21:54:08.285Z,3.90
2019-05-10T21:56:37.257Z,3.98
2019-05-10T21:59:04.961Z,4.10
2019-05-10T22:01:32.378Z,3.72
2019-05-10T22:04:00.179Z,4.12
2019-05-10T22:06:27.646Z,4.10
2019-05-10T22:08:55.360Z,4.22
2019-05-10T22:11:22.838Z,4.10
2019-05-10T22:13:50.460Z,4.80
2019-05-10T22:16:17.852Z,4.45
2019-05-10T22:18:45.330Z,4.30
2019-05-10T22:21:13.359Z,4.58
2019-05-10T22:23:40.832Z,4.58
2019-05-10T22:26:08.318Z,4.53
2019-05-10T22:28:35.652Z,4.20
2019-05-10T22:31:03.026Z,4.28
2019-05-10T22:33:30.483Z,3.77
2019-05-10T22:35:58.284Z,3.85
2019-05-10T22:38:26.177Z,4.10
2019-05-10T22:40:53.634Z,5.35
2019-05-10T22:43:21.559Z,5.95
2019-05-10T22:45:48.886Z,4.90
2019-05-10T22:48:16.213Z,4.25
2019-05-10T22:50:43.628Z,4.25
2019-05-10T22:53:11.678Z,4.40
2019-05-10T22:55:39.486Z,4.50
2019-05-10T22:58:07.243Z,4.53
2019-05-10T23:00:34.926Z,5.42
2019-05-10T23:03:02.336Z,4.75
2019-05-10T23:05:30.116Z,4.50
2019-05-10T23:07:57.484Z,4.50
2019-05-10T23:10:24.846Z,4.35
2019-05-10T23:12:52.464Z,4.42
2019-05-10T23:15:19.893Z,4.37
2019-05-10T23:17:47.406Z,4.28
2019-05-10T23:20:14.832Z,5.92
2019-05-10T23:22:42.129Z,4.47
2019-05-10T23:25:15.466Z,7.80
2019-05-10T23:27:43.314Z,4.60
2019-05-10T23:30:10.807Z,4.20
2019-05-10T23:32:38.696Z,5.67
2019-05-10T23:35:06.629Z,15.80
2019-05-10T23:37:34.366Z,5.12
2019-05-10T23:40:01.972Z,13.88
2019-05-10T23:42:29.520Z,7.80
2019-05-10T23:44:57.243Z,21.60
2019-05-10T23:47:24.546Z,5.55
2019-05-10T23:49:51.949Z,4.00
2019-05-10T23:52:19.647Z,4.30
2019-05-10T23:54:47.101Z,4.25
2019-05-10T23:57:14.739Z,4.20
2019-05-10T23:59:42.600Z,4.30
